createdAt,value
2022-11-13T00:00:26.809Z,8.19
2022-11-13T00:03:03.747Z,8.26
2022-11-13T00:05:31.591Z,8.28
2022-11-13T00:08:02.190Z,8.26
2022-11-13T00:10:29.562Z,8.27
2022-11-13T00:12:59.669Z,8.29
2022-11-13T00:15:27.203Z,8.28
2022-11-13T00:18:00.756Z,8.26
2022-11-13T00:20:31.293Z,8.27
2022-11-13T00:22:58.611Z,8.26
2022-11-13T00:25:26.079Z,8.26
2022-11-13T00:27:53.460Z,8.26
2022-11-13T00:30:22.017Z,8.33
2022-11-13T00:32:56.190Z,8.26
2022-11-13T00:35:26.211Z,8.24
2022-11-13T00:37:56.675Z,8.24
2022-11-13T00:40:27.467Z,8.23
2022-11-13T00:42:55.383Z,8.26
2022-11-13T00:45:25.084Z,8.28
2022-11-13T00:48:04.404Z,8.28
2022-11-13T00:50:32.729Z,8.30
2022-11-13T00:52:59.918Z,8.33
2022-11-13T00:55:27.029Z,8.30
2022-11-13T00:57:57.219Z,8.36
2022-11-13T01:00:27.254Z,8.33
2022-11-13T01:02:54.537Z,8.35
2022-11-13T01:05:21.766Z,8.32
2022-11-13T01:07:49.344Z,8.25
2022-11-13T01:10:17.238Z,8.23
2022-11-13T01:12:44.339Z,8.24
2022-11-13T01:15:11.812Z,8.21
2022-11-13T01:17:39.382Z,8.21
2022-11-13T01:20:07.436Z,8.20
2022-11-13T01:22:34.276Z,8.00
2022-11-13T01:25:04.307Z,7.86
2022-11-13T01:27:31.832Z,7.86
2022-11-13T01:29:58.925Z,7.91
2022-11-13T01:32:26.133Z,7.92
2022-11-13T01:34:53.501Z,7.92
2022-11-13T01:37:23.251Z,7.94
2022-11-13T01:39:50.837Z,7.92
2022-11-13T01:42:18.065Z,7.88
2022-11-13T01:44:57.301Z,7.84
2022-11-13T01:47:25.127Z,7.77
2022-11-13T01:49:56.173Z,7.72
2022-11-13T01:52:39.145Z,7.68
2022-11-13T01:55:16.401Z,7.63
2022-11-13T01:57:43.815Z,7.67
2022-11-13T02:00:13.089Z,7.72
2022-11-13T02:02:40.260Z,7.80
2022-11-13T02:05:09.457Z,7.84
2022-11-13T02:07:36.614Z,7.81
2022-11-13T02:10:04.001Z,7.87
2022-11-13T02:12:37.429Z,7.84
2022-11-13T02:15:07.152Z,7.84
2022-11-13T02:17:45.901Z,7.77
2022-11-13T02:20:14.392Z,7.67
2022-11-13T02:22:59.612Z,7.67
2022-11-13T02:25:32.540Z,7.67
2022-11-13T02:27:59.828Z,7.63
2022-11-13T02:30:30.776Z,7.62
2022-11-13T02:32:59.671Z,7.58
2022-11-13T02:35:31.368Z,7.51
2022-11-13T02:38:04.315Z,7.49
2022-11-13T02:40:32.965Z,7.55
2022-11-13T02:43:00.072Z,7.50
2022-11-13T02:45:27.264Z,7.46
2022-11-13T02:47:54.437Z,7.39
2022-11-13T02:50:21.749Z,7.38
2022-11-13T02:52:48.911Z,7.39
2022-11-13T02:55:16.312Z,7.43
2022-11-13T02:57:43.290Z,7.52
2022-11-13T03:00:13.999Z,7.57
2022-11-13T03:02:41.820Z,7.49
2022-11-13T03:05:14.339Z,7.43
2022-11-13T03:07:42.307Z,7.41
2022-11-13T03:10:10.706Z,7.51
2022-11-13T03:12:39.018Z,7.61
2022-11-13T03:15:07.702Z,7.61
2022-11-13T03:17:35.865Z,7.60
2022-11-13T03:20:04.147Z,7.68
2022-11-13T03:22:31.182Z,7.63
2022-11-13T03:24:58.212Z,7.60
2022-11-13T03:27:27.591Z,7.66
2022-11-13T03:29:54.664Z,7.67
2022-11-13T03:32:21.641Z,7.59
2022-11-13T03:34:49.388Z,7.58
2022-11-13T03:37:16.830Z,7.61
2022-11-13T03:39:44.061Z,7.65
2022-11-13T03:42:11.577Z,7.66
2022-11-13T03:44:40.940Z,7.67
2022-11-13T03:47:08.044Z,7.72
2022-11-13T03:49:35.522Z,7.76
2022-11-13T03:52:02.769Z,7.78
2022-11-13T03:54:29.854Z,7.83
2022-11-13T03:56:59.741Z,7.82
2022-11-13T03:59:26.998Z,7.91
2022-11-13T04:01:53.994Z,7.90
2022-11-13T04:04:21.369Z,7.87
2022-11-13T04:06:48.515Z,7.87
2022-11-13T04:09:15.770Z,7.88
2022-11-13T04:11:45.198Z,7.85
2022-11-13T04:14:12.328Z,7.80
2022-11-13T04:16:39.493Z,7.83
2022-11-13T04:19:06.620Z,7.85
2022-11-13T04:21:33.891Z,7.90
2022-11-13T04:24:01.296Z,7.78
2022-11-13T04:26:28.700Z,7.80
2022-11-13T04:28:55.870Z,7.84
2022-11-13T04:31:22.938Z,7.80
2022-11-13T04:33:49.994Z,7.76
2022-11-13T04:36:17.533Z,7.70
2022-11-13T04:38:44.927Z,7.74
2022-11-13T04:41:32.194Z,7.67
2022-11-13T04:44:01.981Z,7.55
2022-11-13T04:46:29.105Z,7.49
2022-11-13T04:48:56.239Z,7.57
2022-11-13T04:51:23.467Z,7.49
2022-11-13T04:53:50.474Z,7.40
2022-11-13T04:56:17.913Z,7.34
2022-11-13T04:58:44.959Z,7.32
2022-11-13T05:01:12.405Z,7.32
2022-11-13T05:03:39.451Z,7.25
2022-11-13T05:06:09.298Z,7.22
2022-11-13T05:08:36.624Z,7.19
2022-11-13T05:11:04.323Z,7.18
2022-11-13T05:13:33.421Z,7.12
2022-11-13T05:16:03.071Z,7.12
2022-11-13T05:18:31.306Z,7.10
2022-11-13T05:20:58.791Z,7.04
2022-11-13T05:23:27.725Z,7.00
2022-11-13T05:26:02.532Z,6.98
2022-11-13T05:28:29.783Z,7.05
2022-11-13T05:31:09.569Z,7.07
2022-11-13T05:33:37.496Z,7.09
2022-11-13T05:36:06.443Z,7.17
2022-11-13T05:38:33.826Z,7.19
2022-11-13T05:41:18.398Z,7.18
2022-11-13T05:43:46.117Z,7.11
2022-11-13T05:46:16.459Z,7.11
2022-11-13T05:48:45.247Z,7.12
2022-11-13T05:51:23.034Z,7.20
2022-11-13T05:53:51.145Z,7.28
2022-11-13T05:56:42.681Z,7.29
2022-11-13T05:59:23.132Z,7.37
2022-11-13T06:01:51.446Z,7.30
2022-11-13T06:04:25.814Z,7.19
2022-11-13T06:07:22.100Z,7.19
2022-11-13T06:09:53.218Z,7.17
2022-11-13T06:12:20.617Z,7.15
2022-11-13T06:14:53.582Z,7.03
2022-11-13T06:17:25.397Z,6.95
2022-11-13T06:19:55.921Z,6.95
2022-11-13T06:25:15.572Z,7.09
2022-11-13T06:27:42.839Z,7.21
2022-11-13T06:30:10.936Z,7.30
2022-11-13T06:32:38.228Z,7.35
2022-11-13T06:35:06.076Z,7.40
2022-11-13T06:37:34.923Z,7.42
2022-11-13T06:40:02.018Z,7.45
2022-11-13T06:42:29.139Z,7.60
2022-11-13T06:45:15.986Z,7.72
2022-11-13T06:47:43.110Z,7.73
2022-11-13T06:50:10.365Z,7.77
2022-11-13T06:52:37.433Z,7.81
2022-11-13T06:55:05.300Z,7.78
2022-11-13T06:57:32.411Z,7.72
2022-11-13T07:00:02.539Z,7.72
2022-11-13T07:02:29.605Z,7.80
2022-11-13T07:04:56.646Z,7.74
2022-11-13T07:07:27.120Z,7.73
2022-11-13T07:09:54.309Z,7.73
2022-11-13T07:12:21.597Z,7.87
2022-11-13T07:14:48.617Z,7.88
2022-11-13T07:17:17.842Z,7.78
2022-11-13T07:19:44.800Z,7.71
2022-11-13T07:22:14.884Z,7.68
2022-11-13T07:24:42.942Z,7.83
2022-11-13T07:27:09.734Z,7.93
2022-11-13T07:29:37.118Z,7.99
2022-11-13T07:32:07.827Z,7.90
2022-11-13T07:34:34.889Z,7.98
2022-11-13T07:37:02.152Z,8.08
2022-11-13T07:39:29.614Z,8.10
2022-11-13T07:41:56.588Z,8.10
2022-11-13T07:44:54.072Z,8.13
2022-11-13T07:47:21.944Z,8.15
2022-11-13T07:49:49.217Z,8.19
2022-11-13T07:52:16.746Z,8.27
2022-11-13T07:54:44.041Z,8.33
2022-11-13T07:57:11.342Z,8.34
2022-11-13T07:59:38.257Z,8.35
2022-11-13T08:02:07.872Z,8.39
2022-11-13T08:04:34.863Z,8.53
2022-11-13T08:07:01.876Z,8.55
2022-11-13T08:09:29.161Z,8.60
2022-11-13T08:11:56.209Z,8.61
2022-11-13T08:14:23.371Z,8.71
2022-11-13T08:16:51.992Z,8.79
2022-11-13T08:19:19.383Z,8.88
2022-11-13T08:21:46.657Z,8.96
2022-11-13T08:24:13.799Z,9.07
2022-11-13T08:26:40.945Z,9.09
2022-11-13T08:29:08.050Z,9.12
2022-11-13T08:31:35.176Z,9.22
2022-11-13T08:34:02.251Z,9.20
2022-11-13T08:36:34.950Z,9.23
2022-11-13T08:39:02.365Z,9.20
2022-11-13T08:41:34.802Z,9.30
2022-11-13T08:44:05.885Z,9.42
2022-11-13T08:46:33.055Z,9.43
2022-11-13T08:49:00.069Z,9.46
2022-11-13T08:51:27.323Z,9.54
2022-11-13T08:53:54.509Z,9.53
2022-11-13T08:56:21.886Z,9.50
2022-11-13T08:58:49.137Z,9.33
2022-11-13T09:01:23.952Z,9.26
2022-11-13T09:04:09.407Z,9.31
2022-11-13T09:06:36.870Z,9.33
2022-11-13T09:09:10.351Z,9.38
2022-11-13T09:11:37.905Z,9.47
2022-11-13T09:14:06.133Z,9.51
2022-11-13T09:16:33.535Z,9.59
2022-11-13T09:19:00.757Z,9.62
2022-11-13T09:21:27.673Z,9.63
2022-11-13T09:23:54.740Z,9.70
2022-11-13T09:26:21.998Z,9.77
2022-11-13T09:28:49.355Z,9.86
2022-11-13T09:31:16.736Z,9.96
2022-11-13T09:33:43.822Z,10.06
2022-11-13T09:36:15.709Z,10.20
2022-11-13T09:38:43.587Z,10.20
2022-11-13T09:41:20.422Z,10.28
2022-11-13T09:43:59.253Z,10.47
2022-11-13T09:46:44.427Z,10.56
2022-11-13T09:49:33.469Z,10.71
2022-11-13T09:52:26.945Z,10.84
2022-11-13T09:54:54.531Z,10.95
2022-11-13T09:57:30.244Z,11.10
2022-11-13T10:00:03.642Z,11.18
2022-11-13T10:02:49.011Z,11.25
2022-11-13T10:05:37.668Z,11.33
2022-11-13T10:08:18.414Z,11.34
2022-11-13T10:11:16.684Z,11.42
2022-11-13T10:13:51.335Z,11.51
2022-11-13T10:16:33.377Z,11.54
2022-11-13T10:20:00.615Z,11.63
2022-11-13T10:22:41.062Z,11.67
2022-11-13T10:25:31.024Z,11.72
2022-11-13T10:28:21.511Z,11.72
2022-11-13T10:30:50.624Z,11.82
2022-11-13T10:33:19.942Z,11.93
2022-11-13T10:35:54.897Z,11.96
2022-11-13T10:38:46.479Z,11.98
2022-11-13T10:41:15.405Z,12.09
2022-11-13T10:43:51.842Z,12.15
2022-11-13T10:46:25.821Z,12.26
2022-11-13T10:48:53.096Z,12.35
2022-11-13T10:51:27.690Z,12.41
2022-11-13T10:53:55.755Z,12.39
2022-11-13T10:56:36.200Z,12.42
2022-11-13T10:59:15.194Z,12.55
2022-11-13T11:01:46.457Z,12.66
2022-11-13T11:04:30.517Z,12.76
2022-11-13T11:07:20.218Z,12.89
2022-11-13T11:09:49.635Z,12.98
2022-11-13T11:12:30.598Z,13.10
2022-11-13T11:15:22.705Z,13.25
2022-11-13T11:18:02.481Z,13.35
2022-11-13T11:20:45.228Z,13.48
2022-11-13T11:23:31.931Z,13.61
2022-11-13T11:26:10.433Z,13.67
2022-11-13T11:28:45.143Z,13.79
2022-11-13T11:31:18.143Z,13.82
2022-11-13T11:33:55.322Z,13.91
2022-11-13T11:36:41.361Z,13.98
2022-11-13T11:39:23.942Z,14.08
2022-11-13T11:41:59.543Z,14.17
2022-11-13T11:44:52.921Z,14.20
2022-11-13T11:47:20.007Z,14.22
2022-11-13T11:49:47.172Z,14.35
2022-11-13T11:52:37.355Z,14.51
2022-11-13T11:55:23.062Z,14.50
2022-11-13T11:57:58.997Z,14.45
2022-11-13T12:00:31.653Z,14.51
2022-11-13T12:03:21.940Z,14.58
2022-11-13T12:06:03.392Z,14.56
2022-11-13T12:08:44.329Z,14.59
2022-11-13T12:11:34.002Z,14.68
2022-11-13T12:14:10.066Z,14.71
2022-11-13T12:16:57.461Z,14.74
2022-11-13T12:19:26.941Z,14.81
2022-11-13T12:22:12.920Z,14.76
2022-11-13T12:24:59.861Z,14.76
2022-11-13T12:28:07.973Z,14.75
2022-11-13T12:34:21.704Z,14.79
2022-11-13T12:36:59.861Z,14.80
2022-11-13T12:40:00.820Z,14.82
2022-11-13T12:42:48.178Z,14.82
2022-11-13T12:45:27.079Z,14.73
2022-11-13T12:47:54.280Z,14.60
2022-11-13T12:50:32.969Z,14.51
2022-11-13T12:53:10.709Z,14.33
2022-11-13T12:55:40.394Z,14.29
2022-11-13T12:58:31.228Z,14.12
2022-11-13T13:01:05.904Z,14.09
2022-11-13T13:03:41.761Z,14.11
2022-11-13T13:06:24.521Z,14.09
2022-11-13T13:09:06.067Z,14.12
2022-11-13T13:11:56.220Z,14.13
2022-11-13T13:14:42.822Z,14.05
2022-11-13T13:17:15.949Z,14.14
2022-11-13T13:19:43.325Z,14.10
2022-11-13T13:22:12.933Z,13.98
2022-11-13T13:24:40.136Z,13.92
2022-11-13T13:27:25.973Z,13.87
2022-11-13T13:29:53.117Z,13.77
2022-11-13T13:32:42.447Z,13.77
2022-11-13T13:35:20.449Z,13.78
2022-11-13T13:38:31.175Z,13.86
2022-11-13T13:41:21.078Z,13.80
2022-11-13T13:44:12.637Z,13.75
2022-11-13T13:46:39.741Z,13.67
2022-11-13T13:49:14.753Z,13.54
2022-11-13T13:51:48.277Z,13.61
2022-11-13T13:54:34.822Z,13.59
2022-11-13T13:57:02.694Z,13.62
2022-11-13T13:59:35.656Z,13.57
2022-11-13T14:02:17.034Z,13.50
2022-11-13T14:04:46.826Z,13.38
2022-11-13T14:07:31.315Z,13.25
2022-11-13T14:10:22.588Z,13.17
2022-11-13T14:12:53.168Z,13.15
2022-11-13T14:15:29.900Z,13.16
2022-11-13T14:18:16.343Z,13.00
2022-11-13T14:20:53.393Z,12.93
2022-11-13T14:23:28.870Z,12.87
2022-11-13T14:25:57.554Z,12.76
2022-11-13T14:28:27.745Z,12.73
2022-11-13T14:31:07.421Z,12.69
2022-11-13T14:33:45.315Z,12.62
2022-11-13T14:36:13.178Z,12.60
2022-11-13T14:38:42.199Z,12.54
2022-11-13T14:41:37.602Z,12.50
2022-11-13T14:44:05.606Z,12.41
2022-11-13T14:46:44.710Z,12.33
2022-11-13T14:49:25.982Z,12.23
2022-11-13T14:51:57.213Z,12.14
2022-11-13T14:55:13.477Z,12.12
2022-11-13T14:57:27.574Z,12.00
2022-11-13T14:59:56.906Z,11.95
2022-11-13T15:12:55.216Z,11.82
2022-11-13T15:19:33.773Z,11.74
2022-11-13T15:22:25.925Z,11.67
2022-11-13T15:25:41.375Z,11.66
2022-11-13T15:28:42.907Z,11.63
2022-11-13T15:39:24.061Z,11.50
2022-11-13T15:42:22.086Z,11.51
2022-11-13T15:45:32.231Z,11.46
2022-11-13T15:51:35.342Z,11.51
2022-11-13T16:00:59.541Z,11.33
2022-11-13T16:10:14.939Z,11.23
2022-11-13T16:13:09.157Z,11.15
2022-11-13T16:15:42.605Z,11.17
2022-11-13T16:18:22.040Z,11.19
2022-11-13T16:20:49.884Z,11.16
2022-11-13T16:23:21.159Z,11.18
2022-11-13T16:25:50.021Z,11.07
2022-11-13T16:28:19.046Z,11.01
2022-11-13T16:30:47.610Z,11.02
2022-11-13T16:33:14.939Z,11.04
2022-11-13T16:35:42.246Z,11.07
2022-11-13T16:38:15.206Z,11.08
2022-11-13T16:40:43.591Z,11.02
2022-11-13T16:43:11.662Z,10.97
2022-11-13T16:45:39.442Z,11.02
2022-11-13T16:48:12.739Z,11.02
2022-11-13T16:50:40.460Z,10.88
2022-11-13T16:53:08.433Z,10.81
2022-11-13T16:55:36.537Z,10.77
2022-11-13T16:58:04.963Z,10.67
2022-11-13T17:00:32.346Z,10.70
2022-11-13T17:02:59.342Z,10.74
2022-11-13T17:05:27.000Z,10.68
2022-11-13T17:07:59.350Z,10.62
2022-11-13T17:10:32.017Z,10.58
2022-11-13T17:13:00.094Z,10.55
2022-11-13T17:15:27.493Z,10.55
2022-11-13T17:17:58.150Z,10.57
2022-11-13T17:20:25.382Z,10.52
2022-11-13T17:22:52.510Z,10.43
2022-11-13T17:25:20.826Z,10.32
2022-11-13T17:27:48.219Z,10.26
2022-11-13T17:30:15.400Z,10.29
2022-11-13T17:32:42.692Z,10.14
2022-11-13T17:35:12.333Z,10.00
2022-11-13T17:37:40.052Z,9.87
2022-11-13T17:43:10.027Z,9.64
2022-11-13T17:45:38.063Z,9.56
2022-11-13T17:48:05.469Z,9.49
2022-11-13T17:50:33.626Z,9.37
2022-11-13T17:53:00.951Z,9.31
2022-11-13T17:55:28.068Z,9.25
2022-11-13T17:58:00.163Z,9.22
2022-11-13T18:00:27.250Z,9.11
2022-11-13T18:02:56.464Z,9.02
2022-11-13T18:05:23.646Z,8.94
2022-11-13T18:07:50.736Z,8.89
2022-11-13T18:10:18.680Z,8.84
2022-11-13T18:12:45.645Z,8.71
2022-11-13T18:15:12.885Z,8.62
2022-11-13T18:17:41.195Z,8.60
2022-11-13T18:20:08.477Z,8.49
2022-11-13T18:22:35.762Z,8.42
2022-11-13T18:25:03.565Z,8.41
2022-11-13T18:27:30.993Z,8.30
2022-11-13T18:29:58.326Z,8.22
2022-11-13T18:32:25.583Z,8.13
2022-11-13T18:34:52.825Z,8.08
2022-11-13T18:37:20.029Z,8.07
2022-11-13T18:39:46.984Z,8.04
2022-11-13T18:42:13.909Z,8.02
2022-11-13T18:44:45.047Z,7.97
2022-11-13T18:47:12.702Z,8.01
2022-11-13T18:49:39.782Z,7.92
2022-11-13T18:52:07.191Z,7.86
2022-11-13T18:54:34.809Z,7.82
2022-11-13T18:57:02.090Z,7.73
2022-11-13T18:59:29.430Z,7.68
2022-11-13T19:01:56.732Z,7.62
2022-11-13T19:04:24.464Z,7.56
2022-11-13T19:06:55.629Z,7.51
2022-11-13T19:09:22.720Z,7.48
2022-11-13T19:11:52.464Z,7.41
2022-11-13T19:14:37.980Z,7.28
2022-11-13T19:17:05.166Z,7.16
2022-11-13T19:19:32.690Z,7.15
2022-11-13T19:22:09.480Z,7.20
2022-11-13T19:24:36.737Z,7.16
2022-11-13T19:27:05.542Z,7.14
2022-11-13T19:29:32.851Z,7.06
2022-11-13T19:31:59.909Z,6.97
2022-11-13T19:34:27.684Z,6.89
2022-11-13T19:36:55.200Z,6.80
2022-11-13T19:39:23.935Z,6.71
2022-11-13T19:41:51.177Z,6.65
2022-11-13T19:44:18.389Z,6.61
2022-11-13T19:46:45.934Z,6.63
2022-11-13T19:49:14.973Z,6.63
2022-11-13T19:51:42.281Z,6.62
2022-11-13T19:54:09.638Z,6.58
2022-11-13T19:56:36.990Z,6.56
2022-11-13T19:59:04.320Z,6.50
2022-11-13T20:01:32.413Z,6.49
2022-11-13T20:04:04.952Z,6.41
2022-11-13T20:06:33.547Z,6.40
2022-11-13T20:09:02.144Z,6.29
2022-11-13T20:11:29.750Z,6.28
2022-11-13T20:13:57.719Z,6.33
2022-11-13T20:16:24.980Z,6.34
2022-11-13T20:18:56.228Z,6.33
2022-11-13T20:21:27.326Z,6.31
2022-11-13T20:23:57.151Z,6.21
2022-11-13T20:26:25.266Z,6.18
2022-11-13T20:28:52.327Z,6.08
2022-11-13T20:31:22.781Z,6.02
2022-11-13T20:33:52.689Z,5.99
2022-11-13T20:36:20.429Z,6.03
2022-11-13T20:38:54.952Z,6.00
2022-11-13T20:41:24.259Z,6.03
2022-11-13T20:44:00.741Z,5.99
2022-11-13T20:46:28.729Z,6.00
2022-11-13T20:48:56.255Z,5.97
2022-11-13T20:51:28.685Z,5.93
2022-11-13T20:53:56.135Z,5.92
2022-11-13T20:56:25.419Z,5.84
2022-11-13T20:58:53.211Z,5.75
2022-11-13T21:01:23.493Z,5.72
2022-11-13T21:03:51.633Z,5.75
2022-11-13T21:06:21.187Z,5.70
2022-11-13T21:08:49.065Z,5.65
2022-11-13T21:11:29.854Z,5.63
2022-11-13T21:13:58.459Z,5.63
2022-11-13T21:16:28.152Z,5.54
2022-11-13T21:19:00.000Z,5.48
2022-11-13T21:21:29.347Z,5.46
2022-11-13T21:23:57.578Z,5.46
2022-11-13T21:26:25.464Z,5.45
2022-11-13T21:28:57.262Z,5.44
2022-11-13T21:31:24.628Z,5.42
2022-11-13T21:33:51.709Z,5.36
2022-11-13T21:36:22.168Z,5.31
2022-11-13T21:38:55.347Z,5.25
2022-11-13T21:41:27.287Z,5.25
2022-11-13T21:44:00.758Z,5.19
2022-11-13T21:46:32.355Z,5.16
2022-11-13T21:49:05.203Z,5.16
2022-11-13T21:51:35.552Z,5.12
2022-11-13T21:54:02.837Z,5.16
2022-11-13T21:56:31.755Z,5.08
2022-11-13T21:59:00.135Z,4.97
2022-11-13T22:01:27.604Z,4.94
2022-11-13T22:03:59.808Z,4.90
2022-11-13T22:06:32.967Z,4.97
2022-11-13T22:09:10.873Z,4.92
2022-11-13T22:11:38.198Z,4.97
2022-11-13T22:14:11.789Z,4.87
2022-11-13T22:16:41.748Z,4.86
2022-11-13T22:19:26.531Z,4.88
2022-11-13T22:21:56.080Z,4.83
2022-11-13T22:24:27.022Z,4.78
2022-11-13T22:27:02.927Z,4.69
2022-11-13T22:29:30.767Z,4.71
2022-11-13T22:31:58.744Z,4.71
2022-11-13T22:34:25.581Z,4.71
2022-11-13T22:36:52.815Z,4.55
2022-11-13T22:39:19.871Z,4.53
2022-11-13T22:41:47.015Z,4.55
2022-11-13T22:44:14.800Z,4.52
2022-11-13T22:46:42.177Z,4.55
2022-11-13T22:49:12.088Z,4.49
2022-11-13T22:51:42.092Z,4.52
2022-11-13T22:54:11.567Z,4.51
2022-11-13T22:56:40.787Z,4.44
2022-11-13T22:59:10.479Z,4.45
2022-11-13T23:01:39.126Z,4.42
2022-11-13T23:04:09.909Z,4.41
2022-11-13T23:06:37.103Z,4.34
2022-11-13T23:09:06.189Z,4.35
2022-11-13T23:11:38.248Z,4.33
2022-11-13T23:14:10.031Z,4.35
2022-11-13T23:16:38.118Z,4.27
2022-11-13T23:19:05.910Z,4.19
2022-11-13T23:21:33.804Z,4.15
2022-11-13T23:24:04.826Z,4.14
2022-11-13T23:26:34.543Z,4.18
2022-11-13T23:29:02.197Z,4.16
2022-11-13T23:31:29.759Z,4.15
2022-11-13T23:33:57.644Z,4.13
2022-11-13T23:36:25.156Z,4.16
2022-11-13T23:38:52.612Z,4.10
2022-11-13T23:41:20.032Z,4.10
2022-11-13T23:44:07.724Z,4.10
2022-11-13T23:46:34.781Z,4.04
2022-11-13T23:49:02.282Z,4.04
2022-11-13T23:51:29.684Z,4.02
2022-11-13T23:53:59.688Z,4.00
2022-11-13T23:56:27.071Z,3.96
2022-11-13T23:58:54.408Z,3.90
